Dubai Fortune — H9SA — position and weather

sailwx.info

Track history (hours):
 
Tides and Currents Weather Stations Pressure Air Temp Water Temp Dewpoint Dewpoint Depression Visibility Wind Speed Wind Dir Waves Ship Positions

Dubai Fortune

Last reported at 2016-May-04 08:28 UTC. Time now 2016-May-05 10:24 UTC.
Position N 01°16' E 104°10'.

Length 188 m; draft 6.4 m.

Type: Cargo ship. MMSI: 353316000.

Date/timePositionNaut miles runAvg speedWind from/ knotsBaromVisibWave heightAir tempDewpointWater temp
2016-May-04 08:28N 01°16' E 104°10'1213.1
2016-May-04 07:33N 01°14' E 103°59'5 5.1
2016-May-04 06:34N 01°16' E 103°54'0 0.0
2016-May-04 05:31N 01°16' E 103°54'0 0.1
2016-May-04 04:28N 01°16' E 103°54'0 0.0
2016-May-04 03:31N 01°16' E 103°54'0 0.1
2016-May-04 02:28N 01°16' E 103°54'0 0.0
2016-May-04 01:31N 01°16' E 103°54'0 0.1
2016-May-04 00:22N 01°16' E 103°54'0 0.1
2016-May-03 23:10N 01°16' E 103°54'0 0.8
2016-May-03 22:33N 01°15' E 103°54'4 4.1
2016-May-03 21:33N 01°12' E 103°52'9 9.1
2016-May-03 20:33N 01°06' E 103°44'9 9.3
2016-May-03 19:33N 01°04' E 103°35'13 9.2
2016-May-03 18:12N 01°11' E 103°25'65 9.8
2016-May-03 11:33N 01°46' E 102°30'1211.2
2016-May-03 10:31N 01°51' E 102°19'1111.3
2016-May-03 09:33N 01°57' E 102°10'  
Track history (hours):
 
Tides and Currents Weather Stations Pressure Air Temp Water Temp Dewpoint Dewpoint Depression Visibility Wind Speed Wind Dir Waves Ship Positions

Dubai Fortune

Last reported at 2016-May-04 08:28 UTC. Time now 2016-May-05 10:24 UTC.
Position N 01°16' E 104°10'.

Length 188 m; draft 6.4 m.

Type: Cargo ship. MMSI: 353316000.

Date/timePositionNaut miles runAvg speedWind from/ knotsBaromVisibWave heightAir tempDewpointWater temp
2016-May-04 08:28N 01°16' E 104°10'1213.1
2016-May-04 07:33N 01°14' E 103°59'5 5.1
2016-May-04 06:34N 01°16' E 103°54'0 0.0
2016-May-04 05:31N 01°16' E 103°54'0 0.1
2016-May-04 04:28N 01°16' E 103°54'0 0.0
2016-May-04 03:31N 01°16' E 103°54'0 0.1
2016-May-04 02:28N 01°16' E 103°54'0 0.0
2016-May-04 01:31N 01°16' E 103°54'0 0.1
2016-May-04 00:22N 01°16' E 103°54'0 0.1
2016-May-03 23:10N 01°16' E 103°54'0 0.8
2016-May-03 22:33N 01°15' E 103°54'4 4.1
2016-May-03 21:33N 01°12' E 103°52'9 9.1
2016-May-03 20:33N 01°06' E 103°44'9 9.3
2016-May-03 19:33N 01°04' E 103°35'13 9.2
2016-May-03 18:12N 01°11' E 103°25'65 9.8
2016-May-03 11:33N 01°46' E 102°30'1211.2
2016-May-03 10:31N 01°51' E 102°19'1111.3
2016-May-03 09:33N 01°57' E 102°10'  

Dump ship's entire track history